sim
Sign-in with your pilot id or email,
or register
Callsign
Passwort

Schedule Details

Flight Number: DLH1983 (1)
Departure: Cologne Bonn Airport (EDDK) at 08:20
Arrival: Munich Airport (EDDM) at 09:25
Route: Lufthansa Passenger Schedule. Enter filed route here before submitting Pirep.

Weather Information
Getting current METAR information for EDDK 202020Z 08007KT CAVOK 18/07 Q1016 NOSIG
Getting current METAR information for EDDM 202020Z 00000KT CAVOK 11/10 Q1016 NOSIG

Schedule Frequency

Route Map